Terminal Aerodrome Forecast
Issued by NWS

Home | Current Version | Previous Version | Graphics & Text | Print | Product List | Glossary On
Versions: 1 2 3 4 5 6 7 8 9 10 11 12 13 14
085
FTUS43 KIWX 162325
TAFSBN
TAF
KSBN 162325Z 1700/1724 17009KT P6SM VCSH SCT060 BKN100
     FM170600 15007KT P6SM -SHRA VCTS OVC035CB
     FM171300 19010KT P6SM VCSH OVC035
     FM171900 25014G22KT P6SM BKN050=

USA.gov is the U.S. government's official web portal to all federal, state and local government web resources and services.